sensor_id;sensor_type;location;lat;lon;timestamp;P1;durP1;ratioP1;P2;durP2;ratioP2
51556;SDS011;38766;53.194;5.532;2022-09-09T00:00:40;11.30;;;8.63;;
51556;SDS011;38766;53.194;5.532;2022-09-09T00:03:26;15.75;;;8.98;;
51556;SDS011;38766;53.194;5.532;2022-09-09T00:11:07;12.13;;;8.85;;
51556;SDS011;38766;53.194;5.532;2022-09-09T00:13:39;13.75;;;9.25;;
51556;SDS011;38766;53.194;5.532;2022-09-09T00:16:17;12.43;;;8.67;;
51556;SDS011;38766;53.194;5.532;2022-09-09T00:21:27;15.20;;;10.30;;
51556;SDS011;38766;53.194;5.532;2022-09-09T00:24:00;16.90;;;9.82;;
51556;SDS011;38766;53.194;5.532;2022-09-09T00:26:51;16.50;;;10.52;;
51556;SDS011;38766;53.194;5.532;2022-09-09T00:29:32;18.70;;;9.43;;
51556;SDS011;38766;53.194;5.532;2022-09-09T00:32:19;16.52;;;9.50;;
51556;SDS011;38766;53.194;5.532;2022-09-09T00:34:49;13.95;;;9.65;;
51556;SDS011;38766;53.194;5.532;2022-09-09T00:37:19;13.65;;;9.82;;
51556;SDS011;38766;53.194;5.532;2022-09-09T00:39:47;14.65;;;9.90;;
51556;SDS011;38766;53.194;5.532;2022-09-09T00:52:30;15.63;;;8.98;;
51556;SDS011;38766;53.194;5.532;2022-09-09T00:57:30;14.40;;;9.85;;
51556;SDS011;38766;53.194;5.532;2022-09-09T01:00:17;18.60;;;9.60;;
51556;SDS011;38766;53.194;5.532;2022-09-09T01:07:55;15.38;;;9.50;;
51556;SDS011;38766;53.194;5.532;2022-09-09T01:10:31;13.98;;;9.20;;
51556;SDS011;38766;53.194;5.532;2022-09-09T01:13:08;18.42;;;9.85;;
51556;SDS011;38766;53.194;5.532;2022-09-09T01:15:42;13.52;;;8.98;;
51556;SDS011;38766;53.194;5.532;2022-09-09T01:18:12;16.17;;;9.02;;
51556;SDS011;38766;53.194;5.532;2022-09-09T01:21:25;13.50;;;8.75;;
51556;SDS011;38766;53.194;5.532;2022-09-09T01:23:50;13.60;;;8.77;;
51556;SDS011;38766;53.194;5.532;2022-09-09T01:26:43;14.68;;;9.52;;
51556;SDS011;38766;53.194;5.532;2022-09-09T01:29:16;12.85;;;8.80;;
51556;SDS011;38766;53.194;5.532;2022-09-09T01:34:23;14.48;;;9.95;;
51556;SDS011;38766;53.194;5.532;2022-09-09T01:36:59;11.93;;;8.18;;
51556;SDS011;38766;53.194;5.532;2022-09-09T01:39:35;14.98;;;8.23;;
51556;SDS011;38766;53.194;5.532;2022-09-09T01:42:03;15.60;;;9.30;;
51556;SDS011;38766;53.194;5.532;2022-09-09T01:44:31;12.38;;;8.77;;
51556;SDS011;38766;53.194;5.532;2022-09-09T01:46:57;15.38;;;9.25;;
51556;SDS011;38766;53.194;5.532;2022-09-09T01:49:23;15.32;;;9.75;;
51556;SDS011;38766;53.194;5.532;2022-09-09T01:51:50;12.05;;;9.55;;
51556;SDS011;38766;53.194;5.532;2022-09-09T01:54:18;14.45;;;9.40;;
51556;SDS011;38766;53.194;5.532;2022-09-09T02:02:17;13.25;;;9.40;;
51556;SDS011;38766;53.194;5.532;2022-09-09T02:04:47;12.73;;;9.18;;
51556;SDS011;38766;53.194;5.532;2022-09-09T02:07:35;15.27;;;9.20;;
51556;SDS011;38766;53.194;5.532;2022-09-09T02:10:33;14.20;;;9.20;;
51556;SDS011;38766;53.194;5.532;2022-09-09T02:18:35;17.25;;;9.90;;
51556;SDS011;38766;53.194;5.532;2022-09-09T02:21:07;15.02;;;9.60;;
51556;SDS011;38766;53.194;5.532;2022-09-09T02:23:35;17.45;;;10.32;;
51556;SDS011;38766;53.194;5.532;2022-09-09T02:26:02;14.63;;;10.05;;
51556;SDS011;38766;53.194;5.532;2022-09-09T02:28:29;14.73;;;10.32;;
51556;SDS011;38766;53.194;5.532;2022-09-09T02:30:57;15.23;;;10.20;;
51556;SDS011;38766;53.194;5.532;2022-09-09T02:33:27;12.20;;;9.82;;
51556;SDS011;38766;53.194;5.532;2022-09-09T02:35:56;17.45;;;10.27;;
51556;SDS011;38766;53.194;5.532;2022-09-09T02:38:28;14.90;;;10.00;;
51556;SDS011;38766;53.194;5.532;2022-09-09T02:40:57;15.48;;;10.27;;
51556;SDS011;38766;53.194;5.532;2022-09-09T02:43:23;14.05;;;10.88;;
51556;SDS011;38766;53.194;5.532;2022-09-09T02:48:26;15.73;;;10.70;;
51556;SDS011;38766;53.194;5.532;2022-09-09T02:54:00;12.18;;;9.75;;
51556;SDS011;38766;53.194;5.532;2022-09-09T02:56:36;15.38;;;9.80;;
51556;SDS011;38766;53.194;5.532;2022-09-09T02:59:06;13.07;;;8.77;;
51556;SDS011;38766;53.194;5.532;2022-09-09T03:01:32;11.35;;;8.23;;
51556;SDS011;38766;53.194;5.532;2022-09-09T03:03:58;12.73;;;8.20;;
51556;SDS011;38766;53.194;5.532;2022-09-09T03:06:24;10.98;;;8.30;;
51556;SDS011;38766;53.194;5.532;2022-09-09T03:08:50;12.82;;;8.18;;
51556;SDS011;38766;53.194;5.532;2022-09-09T03:11:16;12.57;;;7.93;;
51556;SDS011;38766;53.194;5.532;2022-09-09T03:13:41;12.23;;;8.38;;
51556;SDS011;38766;53.194;5.532;2022-09-09T03:16:07;9.80;;;8.30;;
51556;SDS011;38766;53.194;5.532;2022-09-09T03:18:33;11.60;;;8.40;;
51556;SDS011;38766;53.194;5.532;2022-09-09T03:20:59;11.60;;;8.02;;
51556;SDS011;38766;53.194;5.532;2022-09-09T03:23:25;13.85;;;7.75;;
51556;SDS011;38766;53.194;5.532;2022-09-09T03:25:51;11.52;;;8.98;;
51556;SDS011;38766;53.194;5.532;2022-09-09T03:28:17;10.20;;;7.88;;
51556;SDS011;38766;53.194;5.532;2022-09-09T03:30:43;9.95;;;8.52;;
51556;SDS011;38766;53.194;5.532;2022-09-09T03:33:09;13.30;;;9.23;;
51556;SDS011;38766;53.194;5.532;2022-09-09T03:35:34;13.65;;;9.52;;
51556;SDS011;38766;53.194;5.532;2022-09-09T03:38:00;11.88;;;9.65;;
51556;SDS011;38766;53.194;5.532;2022-09-09T03:40:26;15.00;;;9.82;;
51556;SDS011;38766;53.194;5.532;2022-09-09T03:42:52;12.35;;;9.20;;
51556;SDS011;38766;53.194;5.532;2022-09-09T03:45:18;15.57;;;9.10;;
51556;SDS011;38766;53.194;5.532;2022-09-09T03:47:43;15.48;;;9.85;;
51556;SDS011;38766;53.194;5.532;2022-09-09T03:50:09;13.38;;;9.75;;
51556;SDS011;38766;53.194;5.532;2022-09-09T03:52:39;13.93;;;9.50;;
51556;SDS011;38766;53.194;5.532;2022-09-09T03:55:06;13.40;;;9.65;;
51556;SDS011;38766;53.194;5.532;2022-09-09T03:57:32;14.30;;;9.93;;
51556;SDS011;38766;53.194;5.532;2022-09-09T04:00:00;15.63;;;9.85;;
51556;SDS011;38766;53.194;5.532;2022-09-09T04:02:30;16.38;;;9.75;;
51556;SDS011;38766;53.194;5.532;2022-09-09T04:04:55;14.30;;;9.60;;
51556;SDS011;38766;53.194;5.532;2022-09-09T04:07:21;13.05;;;10.07;;
51556;SDS011;38766;53.194;5.532;2022-09-09T04:09:46;16.67;;;10.27;;
51556;SDS011;38766;53.194;5.532;2022-09-09T04:12:13;17.63;;;10.77;;
51556;SDS011;38766;53.194;5.532;2022-09-09T04:14:38;14.82;;;10.90;;
51556;SDS011;38766;53.194;5.532;2022-09-09T04:17:04;22.23;;;12.00;;
51556;SDS011;38766;53.194;5.532;2022-09-09T04:19:31;15.00;;;11.57;;
51556;SDS011;38766;53.194;5.532;2022-09-09T04:21:57;17.85;;;12.15;;
51556;SDS011;38766;53.194;5.532;2022-09-09T04:24:23;19.73;;;12.30;;
51556;SDS011;38766;53.194;5.532;2022-09-09T04:26:49;16.25;;;11.55;;
51556;SDS011;38766;53.194;5.532;2022-09-09T04:29:15;20.88;;;12.05;;
51556;SDS011;38766;53.194;5.532;2022-09-09T04:31:40;20.42;;;12.18;;
51556;SDS011;38766;53.194;5.532;2022-09-09T04:34:07;18.23;;;11.02;;
51556;SDS011;38766;53.194;5.532;2022-09-09T04:36:34;21.52;;;10.95;;
51556;SDS011;38766;53.194;5.532;2022-09-09T04:39:00;15.15;;;9.93;;
51556;SDS011;38766;53.194;5.532;2022-09-09T04:41:28;12.43;;;9.20;;
51556;SDS011;38766;53.194;5.532;2022-09-09T04:43:56;14.35;;;9.32;;
51556;SDS011;38766;53.194;5.532;2022-09-09T04:46:22;14.10;;;8.80;;
51556;SDS011;38766;53.194;5.532;2022-09-09T04:48:48;12.35;;;9.07;;
51556;SDS011;38766;53.194;5.532;2022-09-09T04:51:14;13.70;;;9.10;;
51556;SDS011;38766;53.194;5.532;2022-09-09T04:53:40;11.73;;;8.68;;
51556;SDS011;38766;53.194;5.532;2022-09-09T04:56:10;12.40;;;9.45;;
51556;SDS011;38766;53.194;5.532;2022-09-09T04:58:37;11.60;;;8.77;;
51556;SDS011;38766;53.194;5.532;2022-09-09T05:01:08;13.30;;;8.77;;
51556;SDS011;38766;53.194;5.532;2022-09-09T05:03:37;11.70;;;8.63;;
51556;SDS011;38766;53.194;5.532;2022-09-09T05:06:10;10.90;;;8.30;;
51556;SDS011;38766;53.194;5.532;2022-09-09T05:08:37;12.35;;;8.43;;
51556;SDS011;38766;53.194;5.532;2022-09-09T05:11:12;12.70;;;8.20;;
51556;SDS011;38766;53.194;5.532;2022-09-09T05:13:45;11.02;;;7.28;;
51556;SDS011;38766;53.194;5.532;2022-09-09T05:16:11;10.05;;;7.40;;
51556;SDS011;38766;53.194;5.532;2022-09-09T05:18:38;12.25;;;8.65;;
51556;SDS011;38766;53.194;5.532;2022-09-09T05:21:05;9.68;;;7.32;;
51556;SDS011;38766;53.194;5.532;2022-09-09T05:23:32;11.52;;;7.28;;
51556;SDS011;38766;53.194;5.532;2022-09-09T05:25:59;10.48;;;7.05;;
51556;SDS011;38766;53.194;5.532;2022-09-09T05:28:25;12.98;;;7.82;;
51556;SDS011;38766;53.194;5.532;2022-09-09T05:30:55;12.38;;;8.20;;
51556;SDS011;38766;53.194;5.532;2022-09-09T05:33:25;10.57;;;7.10;;
51556;SDS011;38766;53.194;5.532;2022-09-09T05:35:55;9.82;;;7.32;;
51556;SDS011;38766;53.194;5.532;2022-09-09T05:38:22;12.00;;;7.78;;
51556;SDS011;38766;53.194;5.532;2022-09-09T05:40:50;12.57;;;8.15;;
51556;SDS011;38766;53.194;5.532;2022-09-09T05:43:17;12.02;;;8.00;;
51556;SDS011;38766;53.194;5.532;2022-09-09T05:45:45;11.73;;;7.70;;
51556;SDS011;38766;53.194;5.532;2022-09-09T05:48:12;12.98;;;7.57;;
51556;SDS011;38766;53.194;5.532;2022-09-09T05:50:40;13.25;;;8.18;;
51556;SDS011;38766;53.194;5.532;2022-09-09T05:53:06;13.43;;;7.88;;
51556;SDS011;38766;53.194;5.532;2022-09-09T05:55:31;15.07;;;8.10;;
51556;SDS011;38766;53.194;5.532;2022-09-09T05:57:57;13.77;;;8.63;;
51556;SDS011;38766;53.194;5.532;2022-09-09T06:00:22;11.02;;;8.57;;
51556;SDS011;38766;53.194;5.532;2022-09-09T06:02:51;17.42;;;8.77;;
51556;SDS011;38766;53.194;5.532;2022-09-09T06:05:18;13.50;;;9.55;;
51556;SDS011;38766;53.194;5.532;2022-09-09T06:07:44;17.95;;;9.93;;
51556;SDS011;38766;53.194;5.532;2022-09-09T06:10:10;14.90;;;9.93;;
51556;SDS011;38766;53.194;5.532;2022-09-09T06:12:38;14.80;;;10.02;;
51556;SDS011;38766;53.194;5.532;2022-09-09T06:15:04;18.08;;;10.02;;
51556;SDS011;38766;53.194;5.532;2022-09-09T06:17:30;20.17;;;11.25;;
51556;SDS011;38766;53.194;5.532;2022-09-09T06:19:56;15.07;;;11.43;;
51556;SDS011;38766;53.194;5.532;2022-09-09T06:22:22;15.95;;;11.63;;
51556;SDS011;38766;53.194;5.532;2022-09-09T06:24:47;16.55;;;11.30;;
51556;SDS011;38766;53.194;5.532;2022-09-09T06:27:13;13.82;;;10.43;;
51556;SDS011;38766;53.194;5.532;2022-09-09T06:29:39;16.45;;;12.07;;
51556;SDS011;38766;53.194;5.532;2022-09-09T06:32:04;14.57;;;11.40;;
51556;SDS011;38766;53.194;5.532;2022-09-09T06:34:30;15.65;;;11.25;;
51556;SDS011;38766;53.194;5.532;2022-09-09T06:36:56;17.50;;;10.90;;
51556;SDS011;38766;53.194;5.532;2022-09-09T06:39:23;16.88;;;11.60;;
51556;SDS011;38766;53.194;5.532;2022-09-09T06:41:48;17.27;;;11.48;;
51556;SDS011;38766;53.194;5.532;2022-09-09T06:44:18;13.48;;;10.93;;
51556;SDS011;38766;53.194;5.532;2022-09-09T06:46:44;16.58;;;10.85;;
51556;SDS011;38766;53.194;5.532;2022-09-09T06:49:12;13.88;;;10.40;;
51556;SDS011;38766;53.194;5.532;2022-09-09T06:51:38;16.50;;;10.35;;
51556;SDS011;38766;53.194;5.532;2022-09-09T06:54:07;15.10;;;10.82;;
51556;SDS011;38766;53.194;5.532;2022-09-09T06:59:05;14.52;;;9.77;;
51556;SDS011;38766;53.194;5.532;2022-09-09T07:01:34;15.48;;;10.25;;
51556;SDS011;38766;53.194;5.532;2022-09-09T07:04:02;15.02;;;9.90;;
51556;SDS011;38766;53.194;5.532;2022-09-09T07:06:30;14.30;;;9.38;;
51556;SDS011;38766;53.194;5.532;2022-09-09T07:08:58;14.30;;;9.80;;
51556;SDS011;38766;53.194;5.532;2022-09-09T07:11:26;16.45;;;9.18;;
51556;SDS011;38766;53.194;5.532;2022-09-09T07:13:54;16.17;;;9.77;;
51556;SDS011;38766;53.194;5.532;2022-09-09T07:16:22;15.20;;;9.00;;
51556;SDS011;38766;53.194;5.532;2022-09-09T07:18:53;13.10;;;8.13;;
51556;SDS011;38766;53.194;5.532;2022-09-09T07:21:22;14.25;;;8.75;;
51556;SDS011;38766;53.194;5.532;2022-09-09T07:23:49;10.30;;;7.57;;
51556;SDS011;38766;53.194;5.532;2022-09-09T07:26:16;10.07;;;7.68;;
51556;SDS011;38766;53.194;5.532;2022-09-09T07:28:44;13.77;;;7.82;;
51556;SDS011;38766;53.194;5.532;2022-09-09T07:31:18;10.75;;;7.40;;
51556;SDS011;38766;53.194;5.532;2022-09-09T07:33:48;10.40;;;6.75;;
51556;SDS011;38766;53.194;5.532;2022-09-09T07:36:16;10.63;;;6.72;;
51556;SDS011;38766;53.194;5.532;2022-09-09T07:38:44;9.02;;;6.78;;
51556;SDS011;38766;53.194;5.532;2022-09-09T07:41:12;11.07;;;7.13;;
51556;SDS011;38766;53.194;5.532;2022-09-09T07:43:43;8.50;;;6.45;;
51556;SDS011;38766;53.194;5.532;2022-09-09T07:46:10;8.75;;;6.22;;
51556;SDS011;38766;53.194;5.532;2022-09-09T07:48:37;8.20;;;5.93;;
51556;SDS011;38766;53.194;5.532;2022-09-09T07:53:35;11.15;;;6.15;;
51556;SDS011;38766;53.194;5.532;2022-09-09T07:56:05;8.93;;;6.35;;
51556;SDS011;38766;53.194;5.532;2022-09-09T07:58:36;7.55;;;5.60;;
51556;SDS011;38766;53.194;5.532;2022-09-09T08:01:09;10.40;;;6.13;;
51556;SDS011;38766;53.194;5.532;2022-09-09T08:03:37;9.30;;;6.05;;
51556;SDS011;38766;53.194;5.532;2022-09-09T08:06:04;9.23;;;6.05;;
51556;SDS011;38766;53.194;5.532;2022-09-09T08:08:32;11.52;;;5.88;;
51556;SDS011;38766;53.194;5.532;2022-09-09T08:11:05;11.00;;;5.95;;
51556;SDS011;38766;53.194;5.532;2022-09-09T08:13:34;8.55;;;5.82;;
51556;SDS011;38766;53.194;5.532;2022-09-09T08:16:05;8.73;;;5.43;;
51556;SDS011;38766;53.194;5.532;2022-09-09T08:18:32;8.50;;;5.53;;
51556;SDS011;38766;53.194;5.532;2022-09-09T08:20:58;10.05;;;5.45;;
51556;SDS011;38766;53.194;5.532;2022-09-09T08:23:29;11.43;;;6.15;;
51556;SDS011;38766;53.194;5.532;2022-09-09T08:25:55;8.88;;;5.35;;
51556;SDS011;38766;53.194;5.532;2022-09-09T08:28:27;9.05;;;5.93;;
51556;SDS011;38766;53.194;5.532;2022-09-09T08:30:53;8.88;;;5.55;;
51556;SDS011;38766;53.194;5.532;2022-09-09T08:33:19;8.55;;;5.57;;
51556;SDS011;38766;53.194;5.532;2022-09-09T08:35:50;8.18;;;5.43;;
51556;SDS011;38766;53.194;5.532;2022-09-09T08:38:17;8.95;;;5.47;;
51556;SDS011;38766;53.194;5.532;2022-09-09T08:40:43;10.20;;;6.03;;
51556;SDS011;38766;53.194;5.532;2022-09-09T08:43:14;8.70;;;6.35;;
51556;SDS011;38766;53.194;5.532;2022-09-09T08:45:50;8.05;;;6.30;;
51556;SDS011;38766;53.194;5.532;2022-09-09T08:48:34;10.07;;;7.00;;
51556;SDS011;38766;53.194;5.532;2022-09-09T08:51:24;8.85;;;6.82;;
51556;SDS011;38766;53.194;5.532;2022-09-09T08:53:53;9.65;;;6.10;;
51556;SDS011;38766;53.194;5.532;2022-09-09T08:56:21;12.35;;;6.95;;
51556;SDS011;38766;53.194;5.532;2022-09-09T08:58:50;10.05;;;6.25;;
51556;SDS011;38766;53.194;5.532;2022-09-09T09:12:10;10.73;;;7.03;;
51556;SDS011;38766;53.194;5.532;2022-09-09T09:14:42;15.13;;;6.93;;
51556;SDS011;38766;53.194;5.532;2022-09-09T09:17:11;12.27;;;6.35;;
51556;SDS011;38766;53.194;5.532;2022-09-09T09:19:40;9.80;;;7.00;;
51556;SDS011;38766;53.194;5.532;2022-09-09T09:27:27;8.57;;;6.22;;
51556;SDS011;38766;53.194;5.532;2022-09-09T09:29:56;9.30;;;5.45;;
51556;SDS011;38766;53.194;5.532;2022-09-09T09:32:24;9.35;;;5.43;;
51556;SDS011;38766;53.194;5.532;2022-09-09T09:34:54;9.73;;;6.07;;
51556;SDS011;38766;53.194;5.532;2022-09-09T09:37:26;7.60;;;5.68;;
51556;SDS011;38766;53.194;5.532;2022-09-09T09:39:54;9.43;;;5.15;;
51556;SDS011;38766;53.194;5.532;2022-09-09T09:42:19;8.60;;;4.60;;
51556;SDS011;38766;53.194;5.532;2022-09-09T09:44:45;10.30;;;4.75;;
51556;SDS011;38766;53.194;5.532;2022-09-09T09:47:20;6.18;;;4.30;;
51556;SDS011;38766;53.194;5.532;2022-09-09T09:49:55;9.57;;;4.47;;
51556;SDS011;38766;53.194;5.532;2022-09-09T09:52:24;8.65;;;4.07;;
51556;SDS011;38766;53.194;5.532;2022-09-09T09:54:52;10.95;;;4.07;;
51556;SDS011;38766;53.194;5.532;2022-09-09T09:57:18;5.95;;;3.20;;
51556;SDS011;38766;53.194;5.532;2022-09-09T09:59:59;6.22;;;3.53;;
51556;SDS011;38766;53.194;5.532;2022-09-09T10:02:39;7.60;;;4.00;;
51556;SDS011;38766;53.194;5.532;2022-09-09T10:05:30;7.60;;;3.17;;
51556;SDS011;38766;53.194;5.532;2022-09-09T10:08:02;13.57;;;4.05;;
51556;SDS011;38766;53.194;5.532;2022-09-09T10:11:16;13.63;;;3.38;;
51556;SDS011;38766;53.194;5.532;2022-09-09T10:18:47;7.80;;;3.00;;
51556;SDS011;38766;53.194;5.532;2022-09-09T10:24:19;5.90;;;3.03;;
51556;SDS011;38766;53.194;5.532;2022-09-09T10:27:11;8.25;;;2.83;;
51556;SDS011;38766;53.194;5.532;2022-09-09T10:30:32;5.35;;;2.40;;
51556;SDS011;38766;53.194;5.532;2022-09-09T10:35:24;8.82;;;3.03;;
51556;SDS011;38766;53.194;5.532;2022-09-09T10:56:54;6.78;;;2.55;;
51556;SDS011;38766;53.194;5.532;2022-09-09T10:59:31;5.50;;;2.30;;
51556;SDS011;38766;53.194;5.532;2022-09-09T11:02:10;5.97;;;2.50;;
51556;SDS011;38766;53.194;5.532;2022-09-09T11:04:53;6.45;;;2.40;;
51556;SDS011;38766;53.194;5.532;2022-09-09T11:07:33;11.43;;;2.60;;
51556;SDS011;38766;53.194;5.532;2022-09-09T11:10:19;5.93;;;2.50;;
51556;SDS011;38766;53.194;5.532;2022-09-09T11:13:13;7.97;;;2.88;;
51556;SDS011;38766;53.194;5.532;2022-09-09T11:15:44;6.35;;;2.80;;
51556;SDS011;38766;53.194;5.532;2022-09-09T11:18:16;8.25;;;3.03;;
51556;SDS011;38766;53.194;5.532;2022-09-09T11:20:47;6.20;;;2.92;;
51556;SDS011;38766;53.194;5.532;2022-09-09T11:23:22;7.75;;;2.90;;
51556;SDS011;38766;53.194;5.532;2022-09-09T11:25:56;6.03;;;2.85;;
51556;SDS011;38766;53.194;5.532;2022-09-09T11:42:26;9.20;;;3.08;;
51556;SDS011;38766;53.194;5.532;2022-09-09T11:44:52;5.93;;;2.53;;
51556;SDS011;38766;53.194;5.532;2022-09-09T11:47:28;5.90;;;2.78;;
51556;SDS011;38766;53.194;5.532;2022-09-09T11:50:06;6.07;;;2.70;;
51556;SDS011;38766;53.194;5.532;2022-09-09T11:53:02;8.02;;;2.83;;
51556;SDS011;38766;53.194;5.532;2022-09-09T11:55:31;6.10;;;3.15;;
51556;SDS011;38766;53.194;5.532;2022-09-09T11:58:00;7.60;;;2.30;;
51556;SDS011;38766;53.194;5.532;2022-09-09T12:00:47;10.77;;;3.00;;
51556;SDS011;38766;53.194;5.532;2022-09-09T12:06:14;6.68;;;3.10;;
51556;SDS011;38766;53.194;5.532;2022-09-09T12:09:10;6.80;;;2.50;;
51556;SDS011;38766;53.194;5.532;2022-09-09T12:11:53;5.78;;;2.80;;
51556;SDS011;38766;53.194;5.532;2022-09-09T12:14:36;7.25;;;3.05;;
51556;SDS011;38766;53.194;5.532;2022-09-09T12:17:23;6.72;;;2.60;;
51556;SDS011;38766;53.194;5.532;2022-09-09T12:20:06;9.45;;;2.92;;
51556;SDS011;38766;53.194;5.532;2022-09-09T12:22:40;7.43;;;3.30;;
51556;SDS011;38766;53.194;5.532;2022-09-09T12:33:49;4.97;;;2.47;;
51556;SDS011;38766;53.194;5.532;2022-09-09T12:36:21;7.20;;;2.90;;
51556;SDS011;38766;53.194;5.532;2022-09-09T12:38:54;8.50;;;3.03;;
51556;SDS011;38766;53.194;5.532;2022-09-09T12:41:25;6.88;;;2.85;;
51556;SDS011;38766;53.194;5.532;2022-09-09T12:44:13;7.30;;;2.88;;
51556;SDS011;38766;53.194;5.532;2022-09-09T12:46:41;6.13;;;2.80;;
51556;SDS011;38766;53.194;5.532;2022-09-09T12:51:51;9.63;;;3.00;;
51556;SDS011;38766;53.194;5.532;2022-09-09T12:54:17;7.75;;;2.78;;
51556;SDS011;38766;53.194;5.532;2022-09-09T12:56:45;9.20;;;2.85;;
51556;SDS011;38766;53.194;5.532;2022-09-09T13:02:18;7.35;;;2.90;;
51556;SDS011;38766;53.194;5.532;2022-09-09T13:04:43;8.95;;;3.50;;
51556;SDS011;38766;53.194;5.532;2022-09-09T13:07:12;7.57;;;2.95;;
51556;SDS011;38766;53.194;5.532;2022-09-09T13:09:38;7.63;;;3.28;;
51556;SDS011;38766;53.194;5.532;2022-09-09T13:12:05;6.78;;;2.92;;
51556;SDS011;38766;53.194;5.532;2022-09-09T13:14:37;9.70;;;2.70;;
51556;SDS011;38766;53.194;5.532;2022-09-09T13:17:04;8.63;;;2.75;;
51556;SDS011;38766;53.194;5.532;2022-09-09T13:19:32;6.90;;;3.00;;
51556;SDS011;38766;53.194;5.532;2022-09-09T13:22:11;8.15;;;2.80;;
51556;SDS011;38766;53.194;5.532;2022-09-09T13:24:45;8.02;;;2.75;;
51556;SDS011;38766;53.194;5.532;2022-09-09T13:30:00;11.32;;;3.20;;
51556;SDS011;38766;53.194;5.532;2022-09-09T13:32:26;5.32;;;2.28;;
51556;SDS011;38766;53.194;5.532;2022-09-09T13:34:57;6.13;;;3.20;;
51556;SDS011;38766;53.194;5.532;2022-09-09T13:37:31;7.85;;;2.95;;
51556;SDS011;38766;53.194;5.532;2022-09-09T13:40:01;5.85;;;2.55;;
51556;SDS011;38766;53.194;5.532;2022-09-09T13:42:31;3.60;;;2.40;;
51556;SDS011;38766;53.194;5.532;2022-09-09T13:45:04;5.40;;;2.20;;
51556;SDS011;38766;53.194;5.532;2022-09-09T13:47:31;5.03;;;2.70;;
51556;SDS011;38766;53.194;5.532;2022-09-09T13:50:09;6.50;;;2.90;;
51556;SDS011;38766;53.194;5.532;2022-09-09T13:52:46;6.50;;;2.80;;
51556;SDS011;38766;53.194;5.532;2022-09-09T13:55:12;8.88;;;3.00;;
51556;SDS011;38766;53.194;5.532;2022-09-09T13:57:38;6.95;;;2.80;;
51556;SDS011;38766;53.194;5.532;2022-09-09T14:00:04;6.25;;;2.85;;
51556;SDS011;38766;53.194;5.532;2022-09-09T14:02:33;6.50;;;2.63;;
51556;SDS011;38766;53.194;5.532;2022-09-09T14:04:59;4.28;;;2.40;;
51556;SDS011;38766;53.194;5.532;2022-09-09T14:07:24;5.88;;;2.67;;
51556;SDS011;38766;53.194;5.532;2022-09-09T14:09:50;6.00;;;2.88;;
51556;SDS011;38766;53.194;5.532;2022-09-09T14:12:17;7.78;;;2.80;;
51556;SDS011;38766;53.194;5.532;2022-09-09T14:14:43;5.93;;;3.17;;
51556;SDS011;38766;53.194;5.532;2022-09-09T14:17:09;5.63;;;2.70;;
51556;SDS011;38766;53.194;5.532;2022-09-09T14:19:35;3.60;;;2.50;;
51556;SDS011;38766;53.194;5.532;2022-09-09T14:22:02;6.18;;;2.30;;
51556;SDS011;38766;53.194;5.532;2022-09-09T14:24:28;7.57;;;2.85;;
51556;SDS011;38766;53.194;5.532;2022-09-09T14:26:54;5.03;;;2.47;;
51556;SDS011;38766;53.194;5.532;2022-09-09T14:29:20;5.43;;;2.10;;
51556;SDS011;38766;53.194;5.532;2022-09-09T14:31:45;5.57;;;2.13;;
51556;SDS011;38766;53.194;5.532;2022-09-09T14:34:11;5.85;;;2.28;;
51556;SDS011;38766;53.194;5.532;2022-09-09T14:36:37;5.15;;;2.40;;
51556;SDS011;38766;53.194;5.532;2022-09-09T14:39:03;5.53;;;2.13;;
51556;SDS011;38766;53.194;5.532;2022-09-09T14:41:29;5.28;;;2.15;;
51556;SDS011;38766;53.194;5.532;2022-09-09T14:43:55;2.90;;;2.20;;
51556;SDS011;38766;53.194;5.532;2022-09-09T14:46:21;3.90;;;1.92;;
51556;SDS011;38766;53.194;5.532;2022-09-09T14:48:47;3.95;;;2.13;;
51556;SDS011;38766;53.194;5.532;2022-09-09T14:51:17;5.05;;;2.45;;
51556;SDS011;38766;53.194;5.532;2022-09-09T14:53:47;4.50;;;2.42;;
51556;SDS011;38766;53.194;5.532;2022-09-09T14:56:16;3.90;;;2.95;;
51556;SDS011;38766;53.194;5.532;2022-09-09T14:58:43;6.32;;;3.35;;
51556;SDS011;38766;53.194;5.532;2022-09-09T15:01:10;6.47;;;3.47;;
51556;SDS011;38766;53.194;5.532;2022-09-09T15:03:38;5.35;;;3.08;;
51556;SDS011;38766;53.194;5.532;2022-09-09T15:06:08;4.63;;;3.50;;
51556;SDS011;38766;53.194;5.532;2022-09-09T15:08:36;7.18;;;3.10;;
51556;SDS011;38766;53.194;5.532;2022-09-09T15:11:02;6.07;;;3.25;;
51556;SDS011;38766;53.194;5.532;2022-09-09T15:13:29;5.22;;;3.17;;
51556;SDS011;38766;53.194;5.532;2022-09-09T15:15:55;4.55;;;2.75;;
51556;SDS011;38766;53.194;5.532;2022-09-09T15:18:23;2.80;;;2.40;;
51556;SDS011;38766;53.194;5.532;2022-09-09T15:20:48;4.57;;;2.30;;
51556;SDS011;38766;53.194;5.532;2022-09-09T15:23:14;3.17;;;2.20;;
51556;SDS011;38766;53.194;5.532;2022-09-09T15:25:51;3.30;;;2.05;;
51556;SDS011;38766;53.194;5.532;2022-09-09T15:28:17;4.57;;;2.20;;
51556;SDS011;38766;53.194;5.532;2022-09-09T15:30:43;4.45;;;2.55;;
51556;SDS011;38766;53.194;5.532;2022-09-09T15:33:11;3.47;;;2.25;;
51556;SDS011;38766;53.194;5.532;2022-09-09T15:35:37;4.53;;;2.58;;
51556;SDS011;38766;53.194;5.532;2022-09-09T15:38:02;5.18;;;2.88;;
51556;SDS011;38766;53.194;5.532;2022-09-09T15:40:30;6.05;;;2.70;;
51556;SDS011;38766;53.194;5.532;2022-09-09T15:42:57;4.80;;;2.40;;
51556;SDS011;38766;53.194;5.532;2022-09-09T15:45:23;3.35;;;2.70;;
51556;SDS011;38766;53.194;5.532;2022-09-09T15:47:50;6.03;;;2.67;;
51556;SDS011;38766;53.194;5.532;2022-09-09T15:50:15;5.32;;;2.80;;
51556;SDS011;38766;53.194;5.532;2022-09-09T15:52:41;6.82;;;3.10;;
51556;SDS011;38766;53.194;5.532;2022-09-09T15:55:07;5.88;;;3.15;;
51556;SDS011;38766;53.194;5.532;2022-09-09T15:57:33;8.85;;;3.47;;
51556;SDS011;38766;53.194;5.532;2022-09-09T16:00:00;7.00;;;3.15;;
51556;SDS011;38766;53.194;5.532;2022-09-09T16:02:26;5.32;;;3.03;;
51556;SDS011;38766;53.194;5.532;2022-09-09T16:04:52;6.38;;;3.20;;
51556;SDS011;38766;53.194;5.532;2022-09-09T16:07:17;2.30;;;1.80;;
51556;SDS011;38766;53.194;5.532;2022-09-09T16:09:43;1.73;;;1.63;;
51556;SDS011;38766;53.194;5.532;2022-09-09T16:12:09;2.70;;;1.40;;
51556;SDS011;38766;53.194;5.532;2022-09-09T16:14:35;1.40;;;1.30;;
51556;SDS011;38766;53.194;5.532;2022-09-09T16:17:01;2.00;;;1.80;;
51556;SDS011;38766;53.194;5.532;2022-09-09T16:19:27;4.38;;;1.63;;
51556;SDS011;38766;53.194;5.532;2022-09-09T16:21:53;2.17;;;1.90;;
51556;SDS011;38766;53.194;5.532;2022-09-09T16:24:19;2.75;;;2.00;;
51556;SDS011;38766;53.194;5.532;2022-09-09T16:26:46;3.85;;;1.98;;
51556;SDS011;38766;53.194;5.532;2022-09-09T16:29:13;2.80;;;1.80;;
51556;SDS011;38766;53.194;5.532;2022-09-09T16:31:40;3.10;;;1.95;;
51556;SDS011;38766;53.194;5.532;2022-09-09T16:34:07;4.07;;;2.55;;
51556;SDS011;38766;53.194;5.532;2022-09-09T16:36:34;5.85;;;2.60;;
51556;SDS011;38766;53.194;5.532;2022-09-09T16:39:03;3.97;;;2.60;;
51556;SDS011;38766;53.194;5.532;2022-09-09T16:41:30;5.28;;;2.72;;
51556;SDS011;38766;53.194;5.532;2022-09-09T16:43:58;6.45;;;3.13;;
51556;SDS011;38766;53.194;5.532;2022-09-09T16:46:25;4.40;;;3.17;;
51556;SDS011;38766;53.194;5.532;2022-09-09T16:48:52;6.60;;;3.50;;
51556;SDS011;38766;53.194;5.532;2022-09-09T16:51:22;6.45;;;3.40;;
51556;SDS011;38766;53.194;5.532;2022-09-09T16:53:49;5.47;;;3.72;;
51556;SDS011;38766;53.194;5.532;2022-09-09T16:56:16;4.13;;;3.10;;
51556;SDS011;38766;53.194;5.532;2022-09-09T16:58:48;5.63;;;3.83;;
51556;SDS011;38766;53.194;5.532;2022-09-09T17:01:20;6.78;;;3.55;;
51556;SDS011;38766;53.194;5.532;2022-09-09T17:03:46;5.15;;;4.03;;